Time,TemperatureF,DewpointF,PressureIn,WindDirection,WindDirectionDegrees,WindSpeedMPH,WindSpeedGustMPH,Humidity,HourlyPrecipIn,Conditions,Clouds,dailyrainin,SoftwareType,DateUTC
2013-07-16 00:01:00,75.0,73.0,30.23,North,0,0.0,-999.0,94,-99.99,,,-99.99,,2013-07-16 05:01:00,
2013-07-16 00:11:00,75.0,73.0,30.23,North,0,0.0,-999.0,94,-99.99,,,-99.99,,2013-07-16 05:11:00,
2013-07-16 00:22:00,73.0,72.0,30.23,North,0,0.0,-999.0,94,-99.99,,,-99.99,,2013-07-16 05:22:00,
2013-07-16 00:32:00,73.0,72.0,30.22,North,0,0.0,-999.0,94,-99.99,,,-99.99,,2013-07-16 05:32:00,
2013-07-16 00:43:00,73.0,72.0,30.23,North,0,0.0,-999.0,94,-99.99,,,-99.99,,2013-07-16 05:43:00,
2013-07-16 00:52:00,73.0,72.0,30.23,North,0,0.0,-999.0,94,-99.99,,,-99.99,,2013-07-16 05:52:00,
2013-07-16 01:01:00,73.0,72.0,30.24,SSE,154,3.0,-999.0,94,-99.99,,,-99.99,,2013-07-16 06:01:00,
2013-07-16 01:11:00,73.0,72.0,30.24,North,0,0.0,-999.0,94,-99.99,,,-99.99,,2013-07-16 06:11:00,
2013-07-16 01:21:00,73.0,72.0,30.24,North,0,3.0,-999.0,94,-99.99,,,-99.99,,2013-07-16 06:21:00,
2013-07-16 01:31:00,73.0,72.0,30.24,North,0,0.0,-999.0,94,-99.99,,,-99.99,,2013-07-16 06:31:00,
2013-07-16 01:43:00,72.0,72.0,30.24,East,90,3.0,-999.0,100,-99.99,,,-99.99,,2013-07-16 06:43:00,
2013-07-16 01:52:00,72.0,72.0,30.24,North,0,0.0,-999.0,100,-99.99,,,-99.99,,2013-07-16 06:52:00,
2013-07-16 02:01:00,72.0,72.0,30.24,North,0,0.0,-999.0,100,-99.99,,,-99.99,,2013-07-16 07:01:00,
2013-07-16 02:11:00,72.0,72.0,30.24,East,90,3.0,-999.0,100,-99.99,,,-99.99,,2013-07-16 07:11:00,
2013-07-16 02:22:00,72.0,72.0,30.24,North,0,0.0,-999.0,100,-99.99,,,-99.99,,2013-07-16 07:22:00,
2013-07-16 02:32:00,72.0,72.0,30.24,North,0,0.0,-999.0,100,-99.99,,,-99.99,,2013-07-16 07:32:00,
2013-07-16 02:43:00,72.0,72.0,30.24,North,0,0.0,-999.0,100,-99.99,,,-99.99,,2013-07-16 07:43:00,
2013-07-16 02:52:00,72.0,72.0,30.24,ESE,115,3.0,-999.0,100,-99.99,,,-99.99,,2013-07-16 07:52:00,
2013-07-16 03:01:00,72.0,72.0,30.24,North,0,0.0,-999.0,100,-99.99,,,-99.99,,2013-07-16 08:01:00,
2013-07-16 03:11:00,72.0,72.0,30.24,North,0,0.0,-999.0,100,-99.99,,,-99.99,,2013-07-16 08:11:00,
2013-07-16 03:22:00,72.0,72.0,30.24,North,0,0.0,-999.0,100,-99.99,,,-99.99,,2013-07-16 08:22:00,
2013-07-16 03:32:00,70.0,70.0,30.24,North,0,0.0,-999.0,100,-99.99,,,-99.99,,2013-07-16 08:32:00,
2013-07-16 03:43:00,70.0,70.0,30.24,North,0,0.0,-999.0,100,-99.99,,,-99.99,,2013-07-16 08:43:00,
2013-07-16 03:52:00,70.0,70.0,30.24,North,0,0.0,-999.0,100,-99.99,,,-99.99,,2013-07-16 08:52:00,
2013-07-16 04:01:00,70.0,70.0,30.24,North,0,2.0,-999.0,100,-99.99,,,-99.99,,2013-07-16 09:01:00,
2013-07-16 04:12:00,70.0,70.0,30.24,North,0,0.0,-999.0,100,-99.99,,,-99.99,,2013-07-16 09:12:00,
2013-07-16 04:22:00,70.0,70.0,30.24,North,0,0.0,-999.0,100,-99.99,,,-99.99,,2013-07-16 09:22:00,
2013-07-16 04:32:00,70.0,70.0,30.24,North,0,0.0,-999.0,100,-99.99,,,-99.99,,2013-07-16 09:32:00,
2013-07-16 04:42:00,70.0,70.0,30.24,North,0,0.0,-999.0,100,-99.99,,,-99.99,,2013-07-16 09:42:00,
2013-07-16 04:52:00,70.0,70.0,30.24,North,0,0.0,-999.0,100,-99.99,,,-99.99,,2013-07-16 09:52:00,
2013-07-16 05:01:00,70.0,68.0,30.24,North,0,0.0,-999.0,94,-99.99,,,-99.99,,2013-07-16 10:01:00,
2013-07-16 05:11:00,70.0,68.0,30.24,North,0,0.0,-999.0,94,-99.99,,,-99.99,,2013-07-16 10:11:00,
2013-07-16 05:22:00,70.0,68.0,30.24,North,0,0.0,-999.0,94,-99.99,,,-99.99,,2013-07-16 10:22:00,
2013-07-16 05:31:00,70.0,68.0,30.24,North,0,0.0,-999.0,94,-99.99,,,-99.99,,2013-07-16 10:31:00,
2013-07-16 05:43:00,68.0,68.0,30.24,North,0,0.0,-999.0,100,-99.99,,,-99.99,,2013-07-16 10:43:00,
2013-07-16 06:01:00,68.0,68.0,30.24,North,0,0.0,-999.0,100,-99.99,,,-99.99,,2013-07-16 11:01:00,
2013-07-16 06:11:00,68.0,68.0,30.25,North,0,0.0,-999.0,100,-99.99,,,-99.99,,2013-07-16 11:11:00,
2013-07-16 06:22:00,68.0,68.0,30.25,North,0,0.0,-999.0,100,-99.99,,,-99.99,,2013-07-16 11:22:00,
2013-07-16 06:32:00,68.0,68.0,30.25,North,0,0.0,-999.0,100,-99.99,,,-99.99,,2013-07-16 11:32:00,
2013-07-16 06:42:00,68.0,68.0,30.25,North,0,0.0,-999.0,100,-99.99,,,-99.99,,2013-07-16 11:42:00,
2013-07-16 06:52:00,68.0,68.0,30.25,North,0,0.0,-999.0,100,-99.99,,,-99.99,,2013-07-16 11:52:00,
2013-07-16 07:01:00,68.0,68.0,30.25,North,0,0.0,-999.0,100,-99.99,,,-99.99,,2013-07-16 12:01:00,
2013-07-16 07:11:00,68.0,68.0,30.26,North,0,0.0,-999.0,100,-99.99,,,-99.99,,2013-07-16 12:11:00,
2013-07-16 07:22:00,68.0,68.0,30.26,North,0,3.0,-999.0,100,-99.99,,,-99.99,,2013-07-16 12:22:00,
2013-07-16 07:43:00,68.0,68.0,30.26,SSW,205,3.0,-999.0,100,-99.99,,,-99.99,,2013-07-16 12:43:00,
2013-07-16 07:53:00,70.0,68.0,30.27,North,0,0.0,-999.0,94,-99.99,,,-99.99,,2013-07-16 12:53:00,
2013-07-16 08:01:00,70.0,68.0,30.27,North,0,8.0,-999.0,94,-99.99,,,-99.99,,2013-07-16 13:01:00,
2013-07-16 08:11:00,70.0,70.0,30.27,SW,225,3.0,-999.0,100,-99.99,,,-99.99,,2013-07-16 13:11:00,
2013-07-16 08:21:00,70.0,70.0,30.27,SSW,205,3.0,-999.0,100,-99.99,,,-99.99,,2013-07-16 13:21:00,
2013-07-16 08:32:00,70.0,70.0,30.28,SW,225,3.0,-999.0,100,-99.99,,,-99.99,,2013-07-16 13:32:00,
2013-07-16 08:42:00,72.0,72.0,30.28,SSW,204,5.0,-999.0,100,-99.99,,,-99.99,,2013-07-16 13:42:00,
2013-07-16 08:52:00,72.0,72.0,30.28,SW,225,6.0,-999.0,100,-99.99,,,-99.99,,2013-07-16 13:52:00,
2013-07-16 09:01:00,72.0,72.0,30.29,North,0,0.0,-999.0,100,-99.99,,,-99.99,,2013-07-16 14:01:00,
2013-07-16 09:11:00,73.0,72.0,30.29,North,0,0.0,-999.0,94,-99.99,,,-99.99,,2013-07-16 14:11:00,
2013-07-16 09:21:00,73.0,73.0,30.29,SE,135,3.0,-999.0,100,-99.99,,,-99.99,,2013-07-16 14:21:00,
2013-07-16 09:32:00,73.0,72.0,30.29,North,0,0.0,-999.0,94,-99.99,,,-99.99,,2013-07-16 14:32:00,
2013-07-16 09:42:00,75.0,72.0,30.29,SW,225,7.0,-999.0,88,-99.99,,,-99.99,,2013-07-16 14:42:00,
2013-07-16 09:52:00,75.0,72.0,30.29,SSW,204,6.0,-999.0,88,-99.99,,,-99.99,,2013-07-16 14:52:00,
2013-07-16 10:01:00,75.0,72.0,30.29,SSW,204,6.0,-999.0,88,-99.99,,,-99.99,,2013-07-16 15:01:00,
2013-07-16 10:11:00,75.0,72.0,30.29,WSW,250,6.0,-999.0,88,-99.99,,,-99.99,,2013-07-16 15:11:00,
2013-07-16 10:21:00,77.0,72.0,30.30,WSW,250,8.0,-999.0,83,-99.99,,,-99.99,,2013-07-16 15:21:00,
2013-07-16 10:32:00,77.0,70.0,30.30,SSW,205,2.0,-999.0,78,-99.99,,,-99.99,,2013-07-16 15:32:00,
2013-07-16 10:43:00,79.0,72.0,30.30,SSW,204,6.0,-999.0,78,-99.99,,,-99.99,,2013-07-16 15:43:00,
2013-07-16 10:53:00,79.0,70.0,30.29,North,0,0.0,-999.0,73,-99.99,,,-99.99,,2013-07-16 15:53:00,
2013-07-16 11:01:00,79.0,70.0,30.29,SW,225,6.0,-999.0,73,-99.99,,,-99.99,,2013-07-16 16:01:00,
2013-07-16 11:11:00,79.0,70.0,30.30,SW,225,6.0,-999.0,73,-99.99,,,-99.99,,2013-07-16 16:11:00,
2013-07-16 11:21:00,79.0,68.0,30.30,WSW,250,6.0,-999.0,69,-99.99,,,-99.99,,2013-07-16 16:21:00,
2013-07-16 11:32:00,81.0,70.0,30.30,North,0,6.0,-999.0,69,-99.99,,,-99.99,,2013-07-16 16:32:00,
2013-07-16 11:43:00,81.0,68.0,30.30,North,0,0.0,-999.0,65,-99.99,,,-99.99,,2013-07-16 16:43:00,
2013-07-16 11:52:00,81.0,66.0,30.30,North,0,6.0,-999.0,61,-99.99,,,-99.99,,2013-07-16 16:52:00,
2013-07-16 12:02:00,81.0,66.0,30.30,North,0,3.0,-999.0,61,-99.99,,,-99.99,,2013-07-16 17:02:00,
2013-07-16 12:12:00,81.0,66.0,30.30,North,0,7.0,-999.0,61,-99.99,,,-99.99,,2013-07-16 17:12:00,
2013-07-16 12:22:00,81.0,66.0,30.30,SSW,204,6.0,-999.0,61,-99.99,,,-99.99,,2013-07-16 17:22:00,
2013-07-16 12:32:00,81.0,66.0,30.30,SW,225,8.0,-999.0,61,-99.99,,,-99.99,,2013-07-16 17:32:00,
2013-07-16 12:43:00,82.0,66.0,30.30,SSW,204,6.0,-999.0,58,-99.99,,,-99.99,,2013-07-16 17:43:00,
2013-07-16 12:53:00,82.0,66.0,30.30,SSW,204,5.0,-999.0,58,-99.99,,,-99.99,,2013-07-16 17:53:00,
2013-07-16 13:01:00,82.0,68.0,30.30,SW,225,10.0,-999.0,61,-99.99,,,-99.99,,2013-07-16 18:01:00,
2013-07-16 13:11:00,82.0,66.0,30.30,SSW,204,6.0,-999.0,58,-99.99,,,-99.99,,2013-07-16 18:11:00,
2013-07-16 13:22:00,82.0,66.0,30.30,North,0,12.0,-999.0,58,-99.99,,,-99.99,,2013-07-16 18:22:00,
2013-07-16 13:32:00,82.0,66.0,30.30,WSW,249,5.0,-999.0,58,-99.99,,,-99.99,,2013-07-16 18:32:00,
2013-07-16 13:43:00,82.0,66.0,30.30,SSW,204,5.0,-999.0,58,-99.99,,,-99.99,,2013-07-16 18:43:00,
2013-07-16 13:52:00,82.0,66.0,30.30,SSW,204,9.0,-999.0,58,-99.99,,,-99.99,,2013-07-16 18:52:00,
2013-07-16 14:01:00,82.0,66.0,30.29,SW,225,14.0,-999.0,58,-99.99,,,-99.99,,2013-07-16 19:01:00,
2013-07-16 14:11:00,82.0,66.0,30.29,SSW,205,3.0,-999.0,58,-99.99,,,-99.99,,2013-07-16 19:11:00,
2013-07-16 14:22:00,84.0,66.0,30.29,WSW,249,5.0,-999.0,54,-99.99,,,-99.99,,2013-07-16 19:22:00,
2013-07-16 14:32:00,84.0,66.0,30.29,SSW,204,14.0,-999.0,54,-99.99,,,-99.99,,2013-07-16 19:32:00,
2013-07-16 14:43:00,84.0,66.0,30.29,SW,225,8.0,-999.0,54,-99.99,,,-99.99,,2013-07-16 19:43:00,
2013-07-16 14:52:00,84.0,66.0,30.29,North,0,7.0,-999.0,54,-99.99,,,-99.99,,2013-07-16 19:52:00,
2013-07-16 15:03:00,84.0,68.0,30.29,SW,225,10.0,-999.0,58,-99.99,,,-99.99,,2013-07-16 20:03:00,
2013-07-16 15:11:00,84.0,66.0,30.29,SW,225,10.0,-999.0,54,-99.99,,,-99.99,,2013-07-16 20:11:00,
2013-07-16 15:32:00,84.0,66.0,30.29,SSW,204,9.0,-999.0,54,-99.99,,,-99.99,,2013-07-16 20:32:00,
2013-07-16 15:43:00,84.0,66.0,30.28,North,0,6.0,-999.0,54,-99.99,,,-99.99,,2013-07-16 20:43:00,
2013-07-16 15:52:00,84.0,64.0,30.28,SSW,205,8.0,-999.0,51,-99.99,,,-99.99,,2013-07-16 20:52:00,
2013-07-16 16:01:00,84.0,66.0,30.28,SE,135,6.0,-999.0,54,-99.99,,,-99.99,,2013-07-16 21:01:00,
2013-07-16 16:22:00,84.0,64.0,30.28,North,0,8.0,-999.0,51,-99.99,,,-99.99,,2013-07-16 21:22:00,
2013-07-16 16:43:00,84.0,66.0,30.28,SSW,204,10.0,-999.0,54,-99.99,,,-99.99,,2013-07-16 21:43:00,
2013-07-16 16:52:00,84.0,66.0,30.28,North,0,10.0,-999.0,54,-99.99,,,-99.99,,2013-07-16 21:52:00,
2013-07-16 17:01:00,84.0,66.0,30.28,North,0,6.0,-999.0,54,-99.99,,,-99.99,,2013-07-16 22:01:00,
2013-07-16 17:11:00,84.0,66.0,30.28,WSW,250,8.0,-999.0,54,-99.99,,,-99.99,,2013-07-16 22:11:00,
2013-07-16 17:22:00,84.0,66.0,30.28,SW,225,6.0,-999.0,54,-99.99,,,-99.99,,2013-07-16 22:22:00,
2013-07-16 17:33:00,84.0,64.0,30.28,SSW,205,12.0,-999.0,51,-99.99,,,-99.99,,2013-07-16 22:33:00,
2013-07-16 17:43:00,84.0,66.0,30.28,North,0,7.0,-999.0,54,-99.99,,,-99.99,,2013-07-16 22:43:00,
2013-07-16 17:52:00,84.0,66.0,30.28,North,0,12.0,-999.0,54,-99.99,,,-99.99,,2013-07-16 22:52:00,
2013-07-16 18:01:00,84.0,66.0,30.27,WSW,249,10.0,-999.0,54,-99.99,,,-99.99,,2013-07-16 23:01:00,
2013-07-16 18:11:00,84.0,66.0,30.27,SSW,205,12.0,-999.0,54,-99.99,,,-99.99,,2013-07-16 23:11:00,
2013-07-16 18:22:00,84.0,66.0,30.27,SW,225,7.0,-999.0,54,-99.99,,,-99.99,,2013-07-16 23:22:00,
2013-07-16 18:32:00,84.0,66.0,30.27,SW,225,6.0,-999.0,54,-99.99,,,-99.99,,2013-07-16 23:32:00,
2013-07-16 18:42:00,84.0,66.0,30.27,North,0,3.0,-999.0,54,-99.99,,,-99.99,,2013-07-16 23:42:00,
2013-07-16 18:52:00,84.0,68.0,30.27,SW,225,7.0,-999.0,58,-99.99,,,-99.99,,2013-07-16 23:52:00,
2013-07-16 19:01:00,84.0,68.0,30.27,SSW,204,9.0,-999.0,58,-99.99,,,-99.99,,2013-07-17 00:01:00,
2013-07-16 19:11:00,84.0,68.0,30.27,SSW,204,6.0,-999.0,58,-99.99,,,-99.99,,2013-07-17 00:11:00,
2013-07-16 19:22:00,82.0,68.0,30.27,SW,225,8.0,-999.0,61,-99.99,,,-99.99,,2013-07-17 00:22:00,
2013-07-16 19:33:00,82.0,68.0,30.27,SSW,204,5.0,-999.0,61,-99.99,,,-99.99,,2013-07-17 00:33:00,
2013-07-16 19:42:00,82.0,68.0,30.27,WSW,250,7.0,-999.0,61,-99.99,,,-99.99,,2013-07-17 00:42:00,
2013-07-16 19:52:00,82.0,70.0,30.27,SW,225,3.0,-999.0,65,-99.99,,,-99.99,,2013-07-17 00:52:00,
2013-07-16 20:01:00,82.0,70.0,30.27,SSW,204,5.0,-999.0,65,-99.99,,,-99.99,,2013-07-17 01:01:00,
2013-07-16 20:11:00,82.0,70.0,30.27,North,0,0.0,-999.0,65,-99.99,,,-99.99,,2013-07-17 01:11:00,
2013-07-16 20:22:00,82.0,70.0,30.27,SSW,205,3.0,-999.0,65,-99.99,,,-99.99,,2013-07-17 01:22:00,
2013-07-16 20:32:00,81.0,70.0,30.27,SSW,205,3.0,-999.0,69,-99.99,,,-99.99,,2013-07-17 01:32:00,
2013-07-16 20:42:00,81.0,70.0,30.27,SSW,204,6.0,-999.0,69,-99.99,,,-99.99,,2013-07-17 01:42:00,
2013-07-16 20:52:00,81.0,70.0,30.27,SSW,204,6.0,-999.0,69,-99.99,,,-99.99,,2013-07-17 01:52:00,
2013-07-16 21:01:00,81.0,70.0,30.27,SSW,205,3.0,-999.0,69,-99.99,,,-99.99,,2013-07-17 02:01:00,
2013-07-16 21:11:00,81.0,70.0,30.27,North,0,3.0,-999.0,69,-99.99,,,-99.99,,2013-07-17 02:11:00,
2013-07-16 21:22:00,81.0,72.0,30.27,SSW,204,5.0,-999.0,74,-99.99,,,-99.99,,2013-07-17 02:22:00,
2013-07-16 21:32:00,79.0,70.0,30.28,SW,225,5.0,-999.0,73,-99.99,,,-99.99,,2013-07-17 02:32:00,
2013-07-16 21:43:00,79.0,72.0,30.28,SW,225,3.0,-999.0,78,-99.99,,,-99.99,,2013-07-17 02:43:00,
2013-07-16 21:53:00,79.0,70.0,30.29,North,0,0.0,-999.0,73,-99.99,,,-99.99,,2013-07-17 02:53:00,
2013-07-16 22:01:00,79.0,72.0,30.29,SSE,155,5.0,-999.0,78,-99.99,,,-99.99,,2013-07-17 03:01:00,
2013-07-16 22:11:00,77.0,72.0,30.29,North,0,0.0,-999.0,83,-99.99,,,-99.99,,2013-07-17 03:11:00,
2013-07-16 22:32:00,75.0,70.0,30.30,SSW,205,3.0,-999.0,83,-99.99,,,-99.99,,2013-07-17 03:32:00,
2013-07-16 22:43:00,75.0,70.0,30.30,North,0,0.0,-999.0,83,-99.99,,,-99.99,,2013-07-17 03:43:00,
2013-07-16 22:52:00,75.0,70.0,30.30,North,0,0.0,-999.0,83,-99.99,,,-99.99,,2013-07-17 03:52:00,
2013-07-16 23:01:00,75.0,72.0,30.30,North,0,0.0,-999.0,88,-99.99,,,-99.99,,2013-07-17 04:01:00,
2013-07-16 23:11:00,75.0,72.0,30.31,SW,225,5.0,-999.0,88,-99.99,,,-99.99,,2013-07-17 04:11:00,
2013-07-16 23:22:00,75.0,70.0,30.31,North,0,0.0,-999.0,83,-99.99,,,-99.99,,2013-07-17 04:22:00,
2013-07-16 23:32:00,75.0,70.0,30.31,North,0,0.0,-999.0,83,-99.99,,,-99.99,,2013-07-17 04:32:00,
2013-07-16 23:43:00,75.0,72.0,30.31,North,0,0.0,-999.0,88,-99.99,,,-99.99,,2013-07-17 04:43:00,
2013-07-16 23:53:00,73.0,70.0,30.31,North,0,0.0,-999.0,88,-99.99,,,-99.99,,2013-07-17 04:53:00,